Погода Калена неделю

Средиземноморский регион, Турция

05 - 11 сентября
  • 05сентября
    Сегодня
    +26°
    +34°
    Ясно и безоблачно
    ВремяПогодаТемператураВлажностьДавлениеВетер, м/сВероятность осадков
    00:00Ясно и безоблачно+26°C86 %755 мм0.6 м/с2 %
    03:00Ясно и безоблачно+25°C86 %755 мм0.1 м/с2 %
    06:00Ясно и безоблачно+24°C84 %755 мм0.9 м/с2 %
    09:00Ясно и безоблачно+28°C68 %756 мм1.5 м/с2 %
    12:00Ясно и безоблачно+32°C63 %757 мм2.3 м/с2 %
    15:00Ясно и безоблачно+33°C64 %757 мм1.4 м/с14 %
    18:00Ясно и безоблачно+32°C49 %756 мм2.4 м/с21 %
    21:00Ясно и безоблачно+29°C38 %756 мм0.8 м/с3 %
  • 06сентября
    Воскресенье
    +26°
    +37°
    Ясно и безоблачно
    ВремяПогодаТемператураВлажностьДавлениеВетер, м/сВероятность осадков
    00:00Ясно и безоблачно+29°C54 %756 мм1.2 м/с2 %
    03:00Ясно и безоблачно+27°C45 %756 мм0.6 м/с2 %
    06:00Ясно и безоблачно+27°C43 %756 мм0.4 м/с2 %
    09:00Ясно и безоблачно+31°C33 %756 мм0.2 м/с2 %
    12:00Ясно и безоблачно+35°C37 %757 мм4.1 м/с2 %
    15:00Ясно и безоблачно+37°C32 %757 мм2.7 м/с2 %
    18:00Ясно и безоблачно+33°C43 %756 мм0.8 м/с2 %
    21:00Ясно и безоблачно+30°C35 %757 мм1.1 м/с2 %
  • 07сентября
    Понедельник
    +24°
    +36°
    Ясно и безоблачно
    ВремяПогодаТемператураВлажностьДавлениеВетер, м/сВероятность осадков
    00:00Ясно и безоблачно+30°C34 %757 мм0.8 м/с2 %
    03:00Ясно и безоблачно+28°C32 %757 мм0.6 м/с2 %
    06:00Ясно и безоблачно+27°C31 %756 мм0.8 м/с2 %
    09:00Ясно и безоблачно+32°C26 %757 мм0.2 м/с2 %
    12:00Ясно и безоблачно+35°C37 %758 мм3.7 м/с2 %
    15:00Ясно и безоблачно+35°C43 %757 мм3.5 м/с2 %
    18:00Ясно и безоблачно+33°C41 %756 мм2.3 м/с2 %
    21:00Ясно и безоблачно+29°C42 %756 мм1.1 м/с2 %
  • 08сентября
    Вторник
    +22°
    +33°
    Ясно и безоблачно
    ВремяПогодаТемператураВлажностьДавлениеВетер, м/сВероятность осадков
    00:00Ясно и безоблачно+28°C45 %756 мм0.7 м/с2 %
    03:00Ясно и безоблачно+27°C41 %756 мм1.1 м/с2 %
    06:00Ясно и безоблачно+26°C40 %755 мм0.6 м/с2 %
    09:00Ясно и безоблачно+29°C42 %755 мм0.7 м/с2 %
    12:00Ясно и безоблачно+32°C41 %756 мм2.6 м/с2 %
    15:00Ясно и безоблачно+33°C43 %755 мм3.3 м/с2 %
    18:00Ясно и безоблачно+31°C56 %754 мм2.7 м/с2 %
    21:00Ясно и безоблачно+27°C64 %754 мм1.1 м/с2 %
  • 09сентября
    Среда
    +22°
    +34°
    Ясно и безоблачно
    ВремяПогодаТемператураВлажностьДавлениеВетер, м/сВероятность осадков
    00:00Ясно и безоблачно+26°C64 %754 мм0.8 м/с2 %
    03:00Ясно и безоблачно+24°C60 %753 мм0.8 м/с2 %
    06:00Ясно и безоблачно+23°C54 %753 мм0.3 м/с2 %
    09:00Ясно и безоблачно+28°C53 %754 мм1.1 м/с2 %
    12:00Ясно и безоблачно+31°C59 %754 мм3.1 м/с2 %
    15:00Ясно и безоблачно+33°C49 %753 мм3.3 м/с2 %
    18:00Ясно и безоблачно+31°C50 %753 мм2.2 м/с2 %
    21:00Ясно и безоблачно+27°C62 %753 мм0.3 м/с2 %
  • 10сентября
    Четверг
    +21°
    +33°
    Ясно и безоблачно
    ВремяПогодаТемператураВлажностьДавлениеВетер, м/сВероятность осадков
    03:00Ясно и безоблачно+23°C68 %754 мм1.1 м/с2 %
    09:00Ясно и безоблачно+27°C69 %755 мм1.3 м/с2 %
    15:00Ясно и безоблачно+30°C58 %756 мм2.5 м/с2 %
    21:00Ясно и безоблачно+25°C67 %756 мм0.2 м/с4 %
  • 11сентября
    Пятница
    +21°
    +31°
    Ясно и безоблачно
    ВремяПогодаТемператураВлажностьДавлениеВетер, м/сВероятность осадков
    03:00Ясно и безоблачно+22°C66 %757 мм1.3 м/с2 %
    09:00Ясно и безоблачно+26°C57 %758 мм0.9 м/с2 %
    15:00Ясно и безоблачно+30°C56 %758 мм3.6 м/с19 %
    21:00Ясно и безоблачно+26°C64 %758 мм3.4 м/с4 %
Мы используем cookies
Соглашаюсь